sensor_id;sensor_type;location;lat;lon;timestamp;pressure;altitude;pressure_sealevel;temperature;humidity
20455;BME280;10386;54.314;10.022;2023-02-13T00:00:19;103201.00;;;7.28;100.00
20455;BME280;10386;54.314;10.022;2023-02-13T00:02:46;103212.75;;;7.27;100.00
20455;BME280;10386;54.314;10.022;2023-02-13T00:05:13;103217.16;;;7.31;100.00
20455;BME280;10386;54.314;10.022;2023-02-13T00:07:40;103215.31;;;7.33;100.00
20455;BME280;10386;54.314;10.022;2023-02-13T00:10:08;103221.69;;;7.31;100.00
20455;BME280;10386;54.314;10.022;2023-02-13T00:12:35;103225.38;;;7.25;100.00
20455;BME280;10386;54.314;10.022;2023-02-13T00:15:02;103232.63;;;7.23;100.00
20455;BME280;10386;54.314;10.022;2023-02-13T00:17:29;103236.19;;;7.27;100.00
20455;BME280;10386;54.314;10.022;2023-02-13T00:19:56;103245.22;;;7.24;100.00
20455;BME280;10386;54.314;10.022;2023-02-13T00:22:23;103245.34;;;7.18;100.00
20455;BME280;10386;54.314;10.022;2023-02-13T00:24:50;103251.63;;;7.19;100.00
20455;BME280;10386;54.314;10.022;2023-02-13T00:27:17;103250.81;;;7.15;100.00
20455;BME280;10386;54.314;10.022;2023-02-13T00:29:43;103252.59;;;7.16;100.00
20455;BME280;10386;54.314;10.022;2023-02-13T00:32:10;103253.47;;;7.17;100.00
20455;BME280;10386;54.314;10.022;2023-02-13T00:34:37;103249.88;;;7.16;100.00
20455;BME280;10386;54.314;10.022;2023-02-13T00:37:04;103253.47;;;7.17;100.00
20455;BME280;10386;54.314;10.022;2023-02-13T00:39:30;103259.72;;;7.20;100.00
20455;BME280;10386;54.314;10.022;2023-02-13T00:41:57;103271.50;;;7.16;100.00
20455;BME280;10386;54.314;10.022;2023-02-13T00:44:24;103277.88;;;7.12;100.00
20455;BME280;10386;54.314;10.022;2023-02-13T00:46:50;103281.44;;;7.13;100.00
20455;BME280;10386;54.314;10.022;2023-02-13T00:49:17;103281.44;;;7.14;100.00
20455;BME280;10386;54.314;10.022;2023-02-13T00:51:44;103289.63;;;7.10;100.00
20455;BME280;10386;54.314;10.022;2023-02-13T00:54:10;103297.59;;;7.17;100.00
20455;BME280;10386;54.314;10.022;2023-02-13T00:56:37;103303.97;;;7.13;100.00
20455;BME280;10386;54.314;10.022;2023-02-13T00:59:04;103301.34;;;7.09;100.00
20455;BME280;10386;54.314;10.022;2023-02-13T01:01:30;103306.63;;;7.15;100.00
20455;BME280;10386;54.314;10.022;2023-02-13T01:03:57;103315.63;;;7.15;100.00
20455;BME280;10386;54.314;10.022;2023-02-13T01:06:24;103315.69;;;7.12;100.00
20455;BME280;10386;54.314;10.022;2023-02-13T01:08:51;103321.84;;;7.19;100.00
20455;BME280;10386;54.314;10.022;2023-02-13T01:11:17;103330.13;;;7.11;100.00
20455;BME280;10386;54.314;10.022;2023-02-13T01:13:45;103336.44;;;7.09;100.00
20455;BME280;10386;54.314;10.022;2023-02-13T01:16:12;103338.19;;;7.13;100.00
20455;BME280;10386;54.314;10.022;2023-02-13T01:18:41;103345.34;;;7.15;100.00
20455;BME280;10386;54.314;10.022;2023-02-13T01:21:15;103346.31;;;7.11;100.00
20455;BME280;10386;54.314;10.022;2023-02-13T01:23:42;103343.59;;;7.13;100.00
20455;BME280;10386;54.314;10.022;2023-02-13T01:26:15;103363.34;;;7.16;100.00
20455;BME280;10386;54.314;10.022;2023-02-13T01:28:42;103360.66;;;7.15;100.00
20455;BME280;10386;54.314;10.022;2023-02-13T01:31:09;103359.84;;;7.10;100.00
20455;BME280;10386;54.314;10.022;2023-02-13T01:33:36;103366.06;;;7.15;100.00
20455;BME280;10386;54.314;10.022;2023-02-13T01:36:10;103366.16;;;7.10;100.00
20455;BME280;10386;54.314;10.022;2023-02-13T01:38:37;103372.47;;;7.08;100.00
20455;BME280;10386;54.314;10.022;2023-02-13T01:41:04;103376.09;;;7.07;100.00
20455;BME280;10386;54.314;10.022;2023-02-13T01:43:52;103379.66;;;7.09;100.00
20455;BME280;10386;54.314;10.022;2023-02-13T01:46:33;103383.13;;;7.17;100.00
20455;BME280;10386;54.314;10.022;2023-02-13T01:49:09;103384.09;;;7.13;100.00
20455;BME280;10386;54.314;10.022;2023-02-13T01:51:38;103398.63;;;7.06;100.00
20455;BME280;10386;54.314;10.022;2023-02-13T01:54:14;103400.31;;;7.14;100.00
20455;BME280;10386;54.314;10.022;2023-02-13T01:56:49;103406.69;;;7.10;100.00
20455;BME280;10386;54.314;10.022;2023-02-13T01:59:24;103415.75;;;7.05;100.00
20455;BME280;10386;54.314;10.022;2023-02-13T02:01:52;103413.06;;;7.05;100.00
20455;BME280;10386;54.314;10.022;2023-02-13T02:04:28;103418.44;;;7.05;100.00
20455;BME280;10386;54.314;10.022;2023-02-13T02:07:06;103425.69;;;7.04;100.00
20455;BME280;10386;54.314;10.022;2023-02-13T02:09:37;103423.94;;;7.00;100.00
20455;BME280;10386;54.314;10.022;2023-02-13T02:12:09;103437.34;;;7.06;100.00
20455;BME280;10386;54.314;10.022;2023-02-13T02:14:40;103437.41;;;7.03;100.00
20455;BME280;10386;54.314;10.022;2023-02-13T02:17:07;103430.22;;;7.02;100.00
20455;BME280;10386;54.314;10.022;2023-02-13T02:25:14;103438.28;;;7.04;100.00
20455;BME280;10386;54.314;10.022;2023-02-13T02:34:00;103451.03;;;6.94;100.00
20455;BME280;10386;54.314;10.022;2023-02-13T02:47:07;103467.19;;;6.97;100.00
20455;BME280;10386;54.314;10.022;2023-02-13T02:58:24;103489.81;;;6.90;100.00
20455;BME280;10386;54.314;10.022;2023-02-13T03:01:15;103483.50;;;6.90;100.00
20455;BME280;10386;54.314;10.022;2023-02-13T03:04:03;103475.41;;;6.90;100.00
20455;BME280;10386;54.314;10.022;2023-02-13T03:07:01;103489.78;;;6.92;100.00
20455;BME280;10386;54.314;10.022;2023-02-13T03:09:38;103490.72;;;6.89;100.00
20455;BME280;10386;54.314;10.022;2023-02-13T03:12:29;103491.72;;;6.82;100.00
20455;BME280;10386;54.314;10.022;2023-02-13T03:15:17;103493.47;;;6.86;100.00
20455;BME280;10386;54.314;10.022;2023-02-13T03:17:44;103494.34;;;6.88;100.00
20455;BME280;10386;54.314;10.022;2023-02-13T03:20:45;103492.56;;;6.87;100.00
20455;BME280;10386;54.314;10.022;2023-02-13T03:37:57;103499.69;;;6.91;100.00
20455;BME280;10386;54.314;10.022;2023-02-13T03:40:35;103508.84;;;6.82;100.00
20455;BME280;10386;54.314;10.022;2023-02-13T03:43:26;103512.38;;;6.86;100.00
20455;BME280;10386;54.314;10.022;2023-02-13T03:45:54;103516.81;;;6.90;100.00
20455;BME280;10386;54.314;10.022;2023-02-13T03:48:29;103518.56;;;6.93;100.00
20455;BME280;10386;54.314;10.022;2023-02-13T03:51:21;103519.53;;;6.90;100.00
20455;BME280;10386;54.314;10.022;2023-02-13T03:53:54;103516.00;;;6.85;100.00
20455;BME280;10386;54.314;10.022;2023-02-13T03:56:23;103526.72;;;6.91;100.00
20455;BME280;10386;54.314;10.022;2023-02-13T03:59:19;103531.25;;;6.89;100.00
20455;BME280;10386;54.314;10.022;2023-02-13T04:02:00;103534.78;;;6.93;100.00
20455;BME280;10386;54.314;10.022;2023-02-13T04:07:05;103549.22;;;6.89;100.00
20455;BME280;10386;54.314;10.022;2023-02-13T04:09:36;103556.44;;;6.88;100.00
20455;BME280;10386;54.314;10.022;2023-02-13T04:12:15;103559.06;;;6.93;100.00
20455;BME280;10386;54.314;10.022;2023-02-13T04:14:56;103563.59;;;6.91;100.00
20455;BME280;10386;54.314;10.022;2023-02-13T04:17:30;103564.47;;;6.94;100.00
20455;BME280;10386;54.314;10.022;2023-02-13T04:19:59;103566.34;;;6.89;100.00
20455;BME280;10386;54.314;10.022;2023-02-13T04:22:25;103564.59;;;6.85;100.00
20455;BME280;10386;54.314;10.022;2023-02-13T04:24:52;103577.22;;;6.83;100.00
20455;BME280;10386;54.314;10.022;2023-02-13T04:27:19;103569.97;;;6.87;100.00
20455;BME280;10386;54.314;10.022;2023-02-13T04:29:46;103579.88;;;6.86;100.00
20455;BME280;10386;54.314;10.022;2023-02-13T04:32:12;103576.31;;;6.83;100.00
20455;BME280;10386;54.314;10.022;2023-02-13T04:34:40;103581.66;;;6.87;100.00
20455;BME280;10386;54.314;10.022;2023-02-13T04:37:07;103585.31;;;6.82;100.00
20455;BME280;10386;54.314;10.022;2023-02-13T04:39:34;103588.03;;;6.83;100.00
20455;BME280;10386;54.314;10.022;2023-02-13T04:42:00;103588.91;;;6.84;100.00
20455;BME280;10386;54.314;10.022;2023-02-13T04:44:27;103592.56;;;6.80;100.00
20455;BME280;10386;54.314;10.022;2023-02-13T04:46:54;103595.22;;;6.84;100.00
20455;BME280;10386;54.314;10.022;2023-02-13T04:49:20;103593.47;;;6.81;100.00
20455;BME280;10386;54.314;10.022;2023-02-13T04:51:47;103597.94;;;6.78;100.00
20455;BME280;10386;54.314;10.022;2023-02-13T04:54:14;103588.09;;;6.75;100.00
20455;BME280;10386;54.314;10.022;2023-02-13T04:56:41;103597.16;;;6.72;100.00
20455;BME280;10386;54.314;10.022;2023-02-13T04:59:07;103596.19;;;6.75;100.00
20455;BME280;10386;54.314;10.022;2023-02-13T05:01:34;103593.53;;;6.73;100.00
20455;BME280;10386;54.314;10.022;2023-02-13T05:04:01;103595.28;;;6.76;100.00
20455;BME280;10386;54.314;10.022;2023-02-13T05:06:27;103597.16;;;6.72;100.00
20455;BME280;10386;54.314;10.022;2023-02-13T05:08:54;103599.75;;;6.82;100.00
20455;BME280;10386;54.314;10.022;2023-02-13T05:11:21;103592.56;;;6.82;100.00
20455;BME280;10386;54.314;10.022;2023-02-13T05:13:48;103603.34;;;6.78;100.00
20455;BME280;10386;54.314;10.022;2023-02-13T05:16:14;103606.00;;;6.84;100.00
20455;BME280;10386;54.314;10.022;2023-02-13T05:18:41;103605.91;;;6.92;100.00
20455;BME280;10386;54.314;10.022;2023-02-13T05:21:08;103608.78;;;6.76;100.00
20455;BME280;10386;54.314;10.022;2023-02-13T05:23:53;103608.88;;;6.71;100.00
20455;BME280;10386;54.314;10.022;2023-02-13T05:26:20;103616.94;;;6.73;100.00
20455;BME280;10386;54.314;10.022;2023-02-13T05:28:47;103614.22;;;6.74;100.00
20455;BME280;10386;54.314;10.022;2023-02-13T05:31:32;103626.81;;;6.74;100.00
20455;BME280;10386;54.314;10.022;2023-02-13T05:33:59;103618.63;;;6.79;100.00
20455;BME280;10386;54.314;10.022;2023-02-13T05:36:26;103625.94;;;6.72;100.00
20455;BME280;10386;54.314;10.022;2023-02-13T05:38:53;103616.94;;;6.74;100.00
20455;BME280;10386;54.314;10.022;2023-02-13T05:41:19;103622.31;;;6.73;100.00
20455;BME280;10386;54.314;10.022;2023-02-13T05:43:46;103627.72;;;6.74;100.00
20455;BME280;10386;54.314;10.022;2023-02-13T05:46:13;103623.28;;;6.70;100.00
20455;BME280;10386;54.314;10.022;2023-02-13T05:48:40;103634.03;;;6.73;100.00
20455;BME280;10386;54.314;10.022;2023-02-13T05:51:06;103635.81;;;6.73;100.00
20455;BME280;10386;54.314;10.022;2023-02-13T05:53:34;103632.22;;;6.74;100.00
20455;BME280;10386;54.314;10.022;2023-02-13T05:56:02;103643.00;;;6.74;100.00
20455;BME280;10386;54.314;10.022;2023-02-13T05:58:29;103640.34;;;6.72;100.00
20455;BME280;10386;54.314;10.022;2023-02-13T06:00:57;103640.34;;;6.71;100.00
20455;BME280;10386;54.314;10.022;2023-02-13T06:03:26;103641.25;;;6.70;100.00
20455;BME280;10386;54.314;10.022;2023-02-13T06:05:54;103642.13;;;6.72;100.00
20455;BME280;10386;54.314;10.022;2023-02-13T06:08:21;103645.78;;;6.69;100.00
20455;BME280;10386;54.314;10.022;2023-02-13T06:10:49;103658.34;;;6.73;100.00
20455;BME280;10386;54.314;10.022;2023-02-13T06:13:16;103665.56;;;6.70;100.00
20455;BME280;10386;54.314;10.022;2023-02-13T06:15:44;103664.72;;;6.66;100.00
20455;BME280;10386;54.314;10.022;2023-02-13T06:18:10;103664.72;;;6.66;100.00
20455;BME280;10386;54.314;10.022;2023-02-13T06:20:37;103668.28;;;6.67;100.00
20455;BME280;10386;54.314;10.022;2023-02-13T06:23:04;103663.78;;;6.67;100.00
20455;BME280;10386;54.314;10.022;2023-02-13T06:25:33;103667.38;;;6.68;100.00
20455;BME280;10386;54.314;10.022;2023-02-13T06:28:01;103667.38;;;6.68;100.00
20455;BME280;10386;54.314;10.022;2023-02-13T06:30:28;103661.97;;;6.68;100.00
20455;BME280;10386;54.314;10.022;2023-02-13T06:32:54;103671.91;;;6.67;100.00
20455;BME280;10386;54.314;10.022;2023-02-13T06:35:21;103678.13;;;6.71;100.00
20455;BME280;10386;54.314;10.022;2023-02-13T06:37:48;103677.25;;;6.69;100.00
20455;BME280;10386;54.314;10.022;2023-02-13T06:40:15;103674.59;;;6.67;100.00
20455;BME280;10386;54.314;10.022;2023-02-13T06:42:43;103676.41;;;6.65;100.00
20455;BME280;10386;54.314;10.022;2023-02-13T06:45:10;103681.75;;;6.71;100.00
20455;BME280;10386;54.314;10.022;2023-02-13T06:47:47;103679.03;;;6.73;100.00
20455;BME280;10386;54.314;10.022;2023-02-13T06:50:15;103683.59;;;6.65;100.00
20455;BME280;10386;54.314;10.022;2023-02-13T06:52:46;103684.44;;;6.70;100.00
20455;BME280;10386;54.314;10.022;2023-02-13T06:55:14;103693.44;;;6.72;100.00
20455;BME280;10386;54.314;10.022;2023-02-13T06:57:43;103693.50;;;6.66;100.00
20455;BME280;10386;54.314;10.022;2023-02-13T07:00:10;103696.22;;;6.64;100.00
20455;BME280;10386;54.314;10.022;2023-02-13T07:02:40;103698.91;;;6.64;100.00
20455;BME280;10386;54.314;10.022;2023-02-13T07:05:07;103703.38;;;6.67;100.00
20455;BME280;10386;54.314;10.022;2023-02-13T07:07:35;103711.44;;;6.71;100.00
20455;BME280;10386;54.314;10.022;2023-02-13T07:10:03;103697.97;;;6.67;100.00
20455;BME280;10386;54.314;10.022;2023-02-13T07:12:34;103710.53;;;6.72;100.00
20455;BME280;10386;54.314;10.022;2023-02-13T07:15:05;103706.09;;;6.67;100.00
20455;BME280;10386;54.314;10.022;2023-02-13T07:17:33;103713.28;;;6.69;100.00
20455;BME280;10386;54.314;10.022;2023-02-13T07:20:00;103701.56;;;6.70;100.00
20455;BME280;10386;54.314;10.022;2023-02-13T07:22:27;103707.84;;;6.71;100.00
20455;BME280;10386;54.314;10.022;2023-02-13T07:24:53;103711.41;;;6.73;100.00
20455;BME280;10386;54.314;10.022;2023-02-13T07:27:21;103718.63;;;6.71;100.00
20455;BME280;10386;54.314;10.022;2023-02-13T07:29:47;103719.47;;;6.76;100.00
20455;BME280;10386;54.314;10.022;2023-02-13T07:32:14;103723.06;;;6.78;100.00
20455;BME280;10386;54.314;10.022;2023-02-13T07:34:41;103729.41;;;6.75;100.00
20455;BME280;10386;54.314;10.022;2023-02-13T07:37:27;103722.19;;;6.76;100.00
20455;BME280;10386;54.314;10.022;2023-02-13T07:39:54;103729.41;;;6.75;100.00
20455;BME280;10386;54.314;10.022;2023-02-13T07:42:21;103728.53;;;6.72;100.00
20455;BME280;10386;54.314;10.022;2023-02-13T07:44:47;103728.53;;;6.72;100.00
20455;BME280;10386;54.314;10.022;2023-02-13T07:47:14;103733.97;;;6.67;100.00
20455;BME280;10386;54.314;10.022;2023-02-13T07:49:44;103729.44;;;6.72;100.00
20455;BME280;10386;54.314;10.022;2023-02-13T07:52:11;103743.78;;;6.77;100.00
20455;BME280;10386;54.314;10.022;2023-02-13T07:54:37;103747.44;;;6.73;100.00
20455;BME280;10386;54.314;10.022;2023-02-13T07:57:16;103737.50;;;6.75;100.00
20455;BME280;10386;54.314;10.022;2023-02-13T07:59:43;103750.06;;;6.79;100.00
20455;BME280;10386;54.314;10.022;2023-02-13T08:02:11;103742.88;;;6.78;100.00
20455;BME280;10386;54.314;10.022;2023-02-13T08:04:40;103742.00;;;6.76;100.00
20455;BME280;10386;54.314;10.022;2023-02-13T08:07:16;103744.63;;;6.83;100.00
20455;BME280;10386;54.314;10.022;2023-02-13T08:09:44;103745.53;;;6.84;100.00
20455;BME280;10386;54.314;10.022;2023-02-13T08:12:31;103749.03;;;6.93;100.00
20455;BME280;10386;54.314;10.022;2023-02-13T08:15:00;103747.31;;;6.85;100.00
20455;BME280;10386;54.314;10.022;2023-02-13T08:17:27;103741.91;;;6.85;100.00
20455;BME280;10386;54.314;10.022;2023-02-13T08:19:54;103749.06;;;6.90;100.00
20455;BME280;10386;54.314;10.022;2023-02-13T08:22:21;103748.13;;;6.94;100.00
20455;BME280;10386;54.314;10.022;2023-02-13T08:24:47;103741.81;;;6.94;100.00
20455;BME280;10386;54.314;10.022;2023-02-13T08:27:14;103740.03;;;6.94;100.00
20455;BME280;10386;54.314;10.022;2023-02-13T08:29:41;103744.44;;;7.01;100.00
20455;BME280;10386;54.314;10.022;2023-02-13T08:32:08;103748.13;;;6.94;100.00
20455;BME280;10386;54.314;10.022;2023-02-13T08:34:35;103753.53;;;6.94;100.00
20455;BME280;10386;54.314;10.022;2023-02-13T08:37:03;103745.41;;;6.96;100.00
20455;BME280;10386;54.314;10.022;2023-02-13T08:39:30;103751.75;;;6.93;100.00
20455;BME280;10386;54.314;10.022;2023-02-13T08:41:57;103750.75;;;6.99;100.00
20455;BME280;10386;54.314;10.022;2023-02-13T08:44:23;103753.44;;;7.03;100.00
20455;BME280;10386;54.314;10.022;2023-02-13T08:46:50;103764.19;;;7.05;100.00
20455;BME280;10386;54.314;10.022;2023-02-13T08:49:19;103764.25;;;7.03;100.00
20455;BME280;10386;54.314;10.022;2023-02-13T08:51:45;103757.84;;;7.09;100.00
20455;BME280;10386;54.314;10.022;2023-02-13T08:54:12;103759.63;;;7.13;100.00
20455;BME280;10386;54.314;10.022;2023-02-13T08:56:40;103756.88;;;7.16;100.00
20455;BME280;10386;54.314;10.022;2023-02-13T08:59:07;103758.69;;;7.14;100.00
20455;BME280;10386;54.314;10.022;2023-02-13T09:01:34;103764.09;;;7.15;100.00
20455;BME280;10386;54.314;10.022;2023-02-13T09:04:01;103762.25;;;7.20;100.00
20455;BME280;10386;54.314;10.022;2023-02-13T09:06:28;103764.03;;;7.20;100.00
20455;BME280;10386;54.314;10.022;2023-02-13T09:08:56;103772.97;;;7.29;100.00
20455;BME280;10386;54.314;10.022;2023-02-13T09:11:24;103764.84;;;7.31;100.00
20455;BME280;10386;54.314;10.022;2023-02-13T09:13:52;103772.06;;;7.29;100.00
20455;BME280;10386;54.314;10.022;2023-02-13T09:16:20;103773.00;;;7.26;100.00
20455;BME280;10386;54.314;10.022;2023-02-13T09:18:48;103780.19;;;7.27;100.00
20455;BME280;10386;54.314;10.022;2023-02-13T09:21:18;103779.25;;;7.31;100.00
20455;BME280;10386;54.314;10.022;2023-02-13T09:23:45;103774.63;;;7.39;100.00
20455;BME280;10386;54.314;10.022;2023-02-13T09:26:14;103782.78;;;7.36;100.00
20455;BME280;10386;54.314;10.022;2023-02-13T09:28:42;103790.94;;;7.33;100.00
20455;BME280;10386;54.314;10.022;2023-02-13T09:31:18;103782.78;;;7.36;100.00
20455;BME280;10386;54.314;10.022;2023-02-13T09:33:47;103774.66;;;7.38;100.00
20455;BME280;10386;54.314;10.022;2023-02-13T09:36:19;103777.28;;;7.45;100.00
20455;BME280;10386;54.314;10.022;2023-02-13T09:38:53;103776.34;;;7.46;100.00
20455;BME280;10386;54.314;10.022;2023-02-13T09:41:24;103768.31;;;7.40;100.00
20455;BME280;10386;54.314;10.022;2023-02-13T09:46:39;103783.50;;;7.50;100.00
20455;BME280;10386;54.314;10.022;2023-02-13T09:49:18;103787.09;;;7.52;100.00
20455;BME280;10386;54.314;10.022;2023-02-13T09:51:51;103793.44;;;7.48;100.00
20455;BME280;10386;54.314;10.022;2023-02-13T09:54:37;103787.00;;;7.60;100.00
20455;BME280;10386;54.314;10.022;2023-02-13T10:03:10;103787.91;;;7.60;100.00
20455;BME280;10386;54.314;10.022;2023-02-13T10:06:03;103788.81;;;7.59;100.00
20455;BME280;10386;54.314;10.022;2023-02-13T10:08:45;103789.69;;;7.61;100.00
20455;BME280;10386;54.314;10.022;2023-02-13T10:17:15;103794.06;;;7.74;100.00
20455;BME280;10386;54.314;10.022;2023-02-13T10:19:47;103804.06;;;7.65;100.00
20455;BME280;10386;54.314;10.022;2023-02-13T10:22:28;103805.81;;;7.70;100.00
20455;BME280;10386;54.314;10.022;2023-02-13T10:25:03;103812.03;;;7.78;100.00
20455;BME280;10386;54.314;10.022;2023-02-13T10:27:38;103808.34;;;7.85;100.00
20455;BME280;10386;54.314;10.022;2023-02-13T10:30:07;103805.59;;;7.87;100.00
20455;BME280;10386;54.314;10.022;2023-02-13T10:35:29;103805.63;;;7.84;100.00
20455;BME280;10386;54.314;10.022;2023-02-13T10:37:58;103807.34;;;7.92;100.00
20455;BME280;10386;54.314;10.022;2023-02-13T10:40:37;103810.97;;;7.91;100.00
20455;BME280;10386;54.314;10.022;2023-02-13T10:43:10;103806.47;;;7.90;100.00
20455;BME280;10386;54.314;10.022;2023-02-13T10:45:56;103802.84;;;7.90;100.00
20455;BME280;10386;54.314;10.022;2023-02-13T10:49:22;103797.56;;;7.82;100.00
20455;BME280;10386;54.314;10.022;2023-02-13T10:59:49;103787.41;;;7.99;100.00
20455;BME280;10386;54.314;10.022;2023-02-13T11:02:26;103794.66;;;7.97;100.00
20455;BME280;10386;54.314;10.022;2023-02-13T11:05:12;103794.66;;;7.96;100.00
20455;BME280;10386;54.314;10.022;2023-02-13T11:07:40;103786.34;;;8.09;100.00
20455;BME280;10386;54.314;10.022;2023-02-13T11:10:17;103785.50;;;8.06;100.00
20455;BME280;10386;54.314;10.022;2023-02-13T11:12:45;103785.53;;;8.03;100.00
20455;BME280;10386;54.314;10.022;2023-02-13T11:15:30;103780.91;;;8.12;100.00
20455;BME280;10386;54.314;10.022;2023-02-13T11:18:10;103780.94;;;8.08;100.00
20455;BME280;10386;54.314;10.022;2023-02-13T11:20:40;103784.41;;;8.20;100.00
20455;BME280;10386;54.314;10.022;2023-02-13T11:26:10;103784.38;;;8.23;100.00
20455;BME280;10386;54.314;10.022;2023-02-13T11:31:20;103780.78;;;8.21;100.00
20455;BME280;10386;54.314;10.022;2023-02-13T11:33:48;103782.66;;;8.16;100.00
20455;BME280;10386;54.314;10.022;2023-02-13T11:36:23;103778.88;;;8.29;100.00
20455;BME280;10386;54.314;10.022;2023-02-13T11:41:24;103776.25;;;8.24;100.00
20455;BME280;10386;54.314;10.022;2023-02-13T11:43:59;103776.06;;;8.36;100.00
20455;BME280;10386;54.314;10.022;2023-02-13T11:46:45;103776.88;;;8.40;100.00
20455;BME280;10386;54.314;10.022;2023-02-13T11:49:25;103770.69;;;8.33;100.00
20455;BME280;10386;54.314;10.022;2023-02-13T11:51:57;103766.19;;;8.32;100.00
20455;BME280;10386;54.314;10.022;2023-02-13T11:54:40;103764.47;;;8.27;100.00
20455;BME280;10386;54.314;10.022;2023-02-13T11:59:52;103769.97;;;8.21;100.00
20455;BME280;10386;54.314;10.022;2023-02-13T12:02:23;103777.09;;;8.28;100.00
20455;BME280;10386;54.314;10.022;2023-02-13T12:04:52;103776.13;;;8.32;100.00
20455;BME280;10386;54.314;10.022;2023-02-13T12:07:28;103768.94;;;8.29;100.00
20455;BME280;10386;54.314;10.022;2023-02-13T12:10:15;103766.38;;;8.21;100.00
20455;BME280;10386;54.314;10.022;2023-02-13T12:12:54;103768.28;;;8.11;100.00
20455;BME280;10386;54.314;10.022;2023-02-13T12:15:29;103764.59;;;8.20;100.00
20455;BME280;10386;54.314;10.022;2023-02-13T12:18:03;103765.56;;;8.13;100.00
20455;BME280;10386;54.314;10.022;2023-02-13T12:32:09;103761.81;;;8.25;100.00
20455;BME280;10386;54.314;10.022;2023-02-13T12:40:26;103752.06;;;8.11;100.00
20455;BME280;10386;54.314;10.022;2023-02-13T12:49:17;103787.94;;;8.25;100.00
20455;BME280;10386;54.314;10.022;2023-02-13T13:10:42;103763.00;;;8.02;100.00
20455;BME280;10386;54.314;10.022;2023-02-13T13:13:32;103757.69;;;7.96;100.00
20455;BME280;10386;54.314;10.022;2023-02-13T13:16:12;103761.28;;;7.97;100.00
20455;BME280;10386;54.314;10.022;2023-02-13T13:18:56;103772.97;;;7.99;100.00
20455;BME280;10386;54.314;10.022;2023-02-13T13:24:06;103786.53;;;7.96;100.00
20455;BME280;10386;54.314;10.022;2023-02-13T13:26:38;103777.41;;;8.04;100.00
20455;BME280;10386;54.314;10.022;2023-02-13T13:29:11;103789.16;;;8.03;100.00
20455;BME280;10386;54.314;10.022;2023-02-13T13:31:53;103776.78;;;7.83;100.00
20455;BME280;10386;54.314;10.022;2023-02-13T13:34:25;103786.63;;;7.91;100.00
20455;BME280;10386;54.314;10.022;2023-02-13T13:36:59;103779.41;;;7.90;100.00
20455;BME280;10386;54.314;10.022;2023-02-13T13:39:33;103782.13;;;7.90;100.00
20455;BME280;10386;54.314;10.022;2023-02-13T13:45:10;103801.97;;;7.88;100.00
20455;BME280;10386;54.314;10.022;2023-02-13T13:50:34;103799.28;;;7.88;100.00
20455;BME280;10386;54.314;10.022;2023-02-13T13:53:10;103788.53;;;7.83;100.00
20455;BME280;10386;54.314;10.022;2023-02-13T14:01:30;103806.50;;;7.87;100.00
20455;BME280;10386;54.314;10.022;2023-02-13T14:04:03;103802.06;;;7.83;100.00
20455;BME280;10386;54.314;10.022;2023-02-13T14:09:37;103801.19;;;7.81;100.00
20455;BME280;10386;54.314;10.022;2023-02-13T14:14:56;103801.22;;;7.78;100.00
20455;BME280;10386;54.314;10.022;2023-02-13T14:23:33;103814.69;;;7.81;100.00
20455;BME280;10386;54.314;10.022;2023-02-13T14:26:18;103808.47;;;7.76;100.00
20455;BME280;10386;54.314;10.022;2023-02-13T14:31:28;103813.00;;;7.74;100.00
20455;BME280;10386;54.314;10.022;2023-02-13T14:33:59;103818.41;;;7.73;100.00
20455;BME280;10386;54.314;10.022;2023-02-13T14:36:32;103820.22;;;7.72;100.00
20455;BME280;10386;54.314;10.022;2023-02-13T14:44:42;103814.97;;;7.59;100.00
20455;BME280;10386;54.314;10.022;2023-02-13T14:47:31;103813.16;;;7.59;100.00
20455;BME280;10386;54.314;10.022;2023-02-13T14:50:01;103808.69;;;7.57;100.00
20455;BME280;10386;54.314;10.022;2023-02-13T14:52:41;103807.72;;;7.61;100.00
20455;BME280;10386;54.314;10.022;2023-02-13T14:58:12;103811.34;;;7.58;100.00
20455;BME280;10386;54.314;10.022;2023-02-13T15:00:42;103814.06;;;7.58;100.00
20455;BME280;10386;54.314;10.022;2023-02-13T15:03:23;103814.06;;;7.60;100.00
20455;BME280;10386;54.314;10.022;2023-02-13T15:05:56;103823.09;;;7.57;100.00
20455;BME280;10386;54.314;10.022;2023-02-13T15:08:27;103815.88;;;7.58;100.00
20455;BME280;10386;54.314;10.022;2023-02-13T15:10:56;103816.84;;;7.54;100.00
20455;BME280;10386;54.314;10.022;2023-02-13T15:13:34;103806.00;;;7.54;100.00
20455;BME280;10386;54.314;10.022;2023-02-13T15:16:06;103802.31;;;7.59;100.00
20455;BME280;10386;54.314;10.022;2023-02-13T15:18:44;103804.22;;;7.53;100.00
20455;BME280;10386;54.314;10.022;2023-02-13T15:21:21;103812.34;;;7.51;100.00
20455;BME280;10386;54.314;10.022;2023-02-13T15:23:53;103806.91;;;7.54;100.00
20455;BME280;10386;54.314;10.022;2023-02-13T15:26:24;103805.25;;;7.43;100.00
20455;BME280;10386;54.314;10.022;2023-02-13T15:29:12;103795.38;;;7.39;100.00
20455;BME280;10386;54.314;10.022;2023-02-13T15:31:53;103799.91;;;7.37;100.00
20455;BME280;10386;54.314;10.022;2023-02-13T15:34:26;103808.91;;;7.39;100.00
20455;BME280;10386;54.314;10.022;2023-02-13T15:36:54;103797.25;;;7.32;100.00
20455;BME280;10386;54.314;10.022;2023-02-13T15:39:25;103803.56;;;7.31;100.00
20455;BME280;10386;54.314;10.022;2023-02-13T15:41:54;103799.13;;;7.26;100.00
20455;BME280;10386;54.314;10.022;2023-02-13T15:46:54;103802.75;;;7.25;100.00
20455;BME280;10386;54.314;10.022;2023-02-13T15:49:24;103802.72;;;7.26;100.00